Time;durP1;ratioP1;P1;durP2;ratioP2;P2;SDS_P1;SDS_P2;PMS_P1;PMS_P2;Temp;Humidity;BMP_temperature;BMP_pressure;BME280_temperature;BME280_humidity;BME280_pressure;Samples;Min_cycle;Max_cycle;Signal;HPM_P1;HPM_P2
2022/12/12 00:00:49;;;;;;;19.30;9.45;;;1.80;99.90;;;;;;5092138;28;20389;-90
2022/12/12 00:03:14;;;;;;;19.35;9.80;;;1.80;99.90;;;;;;5108569;28;20044;-89
2022/12/12 00:05:40;;;;;;;19.75;9.02;;;1.80;99.90;;;;;;5075231;28;20063;-89
2022/12/12 00:08:06;;;;;;;20.23;9.75;;;1.80;99.90;;;;;;5126098;27;20399;-90
2022/12/12 00:10:32;;;;;;;21.20;10.13;;;1.80;99.90;;;;;;5074988;28;20047;-90
2022/12/12 00:12:58;;;;;;;18.02;8.63;;;1.80;99.90;;;;;;5074734;28;20036;-89
2022/12/12 00:15:24;;;;;;;19.23;9.20;;;1.80;99.90;;;;;;5108640;28;20459;-90
2022/12/12 00:17:49;;;;;;;21.08;9.70;;;1.80;99.90;;;;;;5109034;28;20074;-90
2022/12/12 00:20:15;;;;;;;18.50;7.63;;;1.80;99.90;;;;;;5091785;28;20496;-90
2022/12/12 00:22:41;;;;;;;21.45;8.70;;;1.80;99.90;;;;;;5108138;28;20047;-90
2022/12/12 00:25:07;;;;;;;19.40;8.55;;;1.80;99.90;;;;;;5091107;28;20040;-89
2022/12/12 00:27:32;;;;;;;18.95;8.30;;;1.80;99.90;;;;;;5091392;28;20047;-89
2022/12/12 00:29:58;;;;;;;18.92;9.25;;;1.80;99.90;;;;;;5074042;28;20111;-90
2022/12/12 00:32:24;;;;;;;18.20;8.77;;;1.80;99.90;;;;;;5073791;28;20032;-89
2022/12/12 00:34:50;;;;;;;17.00;8.70;;;1.80;99.90;;;;;;5074030;28;20035;-89
2022/12/12 00:37:16;;;;;;;18.67;9.20;;;1.80;99.90;;;;;;5099667;28;20058;-89
2022/12/12 00:39:41;;;;;;;19.33;9.02;;;1.80;99.90;;;;;;5073684;28;20503;-90
2022/12/12 00:42:07;;;;;;;17.83;8.25;;;1.80;99.90;;;;;;5079032;28;20079;-90
2022/12/12 00:44:33;;;;;;;17.05;8.23;;;1.80;99.90;;;;;;5080854;28;20040;-90
2022/12/12 00:46:59;;;;;;;16.95;8.05;;;1.80;99.90;;;;;;5114733;27;20044;-89
2022/12/12 00:49:24;;;;;;;17.48;8.45;;;1.80;99.90;;;;;;5090721;28;20036;-89
2022/12/12 00:51:50;;;;;;;18.23;7.55;;;1.80;99.90;;;;;;5081242;28;20043;-89
2022/12/12 00:54:15;;;;;;;19.35;9.27;;;1.80;99.90;;;;;;5105718;28;20044;-89
2022/12/12 00:56:42;;;;;;;17.77;8.80;;;1.80;99.90;;;;;;5108413;28;20127;-89
2022/12/12 00:59:07;;;;;;;18.83;9.40;;;1.80;99.90;;;;;;5074172;28;20132;-89
2022/12/12 01:01:34;;;;;;;19.65;8.50;;;1.80;99.90;;;;;;5090845;28;20076;-89
2022/12/12 01:04:01;;;;;;;15.95;7.97;;;1.80;99.90;;;;;;5090693;28;20090;-90
2022/12/12 01:06:27;;;;;;;19.60;9.10;;;1.80;99.90;;;;;;5107749;28;20123;-89
2022/12/12 01:08:53;;;;;;;19.25;9.80;;;1.80;99.90;;;;;;5090880;28;20043;-89
2022/12/12 01:11:19;;;;;;;16.73;8.50;;;1.80;99.90;;;;;;5091053;28;20039;-88
2022/12/12 01:13:47;;;;;;;17.80;8.13;;;1.80;99.90;;;;;;5090506;28;20039;-89
2022/12/12 01:16:13;;;;;;;18.92;9.10;;;1.80;99.90;;;;;;5108199;28;20036;-89
2022/12/12 01:18:40;;;;;;;17.63;7.63;;;1.80;99.90;;;;;;5073730;28;20508;-88
2022/12/12 01:21:12;;;;;;;18.48;9.07;;;1.80;99.90;;;;;;5107494;28;20533;-89
2022/12/12 01:23:38;;;;;;;18.65;8.77;;;1.80;99.90;;;;;;5124520;27;20409;-89
2022/12/12 01:26:10;;;;;;;19.73;8.73;;;1.80;99.90;;;;;;5090497;28;20047;-89
2022/12/12 01:28:36;;;;;;;15.30;7.27;;;1.80;99.90;;;;;;5073774;28;20081;-89
2022/12/12 01:31:02;;;;;;;18.30;8.25;;;1.80;99.90;;;;;;5073716;28;20028;-89
2022/12/12 01:33:27;;;;;;;17.05;8.27;;;1.80;99.90;;;;;;5073384;28;20040;-89
2022/12/12 01:35:53;;;;;;;17.23;7.80;;;1.80;99.90;;;;;;5091196;28;20055;-89
2022/12/12 01:38:19;;;;;;;17.63;8.57;;;1.80;99.90;;;;;;5090344;28;20067;-89
2022/12/12 01:40:45;;;;;;;18.85;8.38;;;1.80;99.90;;;;;;5073567;28;20119;-89
2022/12/12 01:43:14;;;;;;;17.55;8.23;;;1.80;99.90;;;;;;5073430;28;20032;-89
2022/12/12 01:45:58;;;;;;;19.10;8.55;;;1.80;99.90;;;;;;5073497;28;20036;-89
2022/12/12 01:48:48;;;;;;;21.15;10.10;;;1.80;99.90;;;;;;5090474;28;20048;-89
2022/12/12 01:51:18;;;;;;;20.15;9.35;;;1.80;99.90;;;;;;5090448;28;20170;-89
2022/12/12 01:53:44;;;;;;;18.63;8.93;;;1.80;99.90;;;;;;5089856;28;20040;-89
2022/12/12 01:56:15;;;;;;;17.48;8.07;;;1.80;99.90;;;;;;5073751;28;20065;-89
2022/12/12 01:58:44;;;;;;;17.60;8.73;;;1.80;99.90;;;;;;5073248;28;20044;-89
2022/12/12 02:01:11;;;;;;;19.88;8.93;;;1.80;99.90;;;;;;5090510;28;20509;-89
2022/12/12 02:03:38;;;;;;;22.38;9.38;;;1.80;99.90;;;;;;5090222;28;20512;-89
2022/12/12 02:06:08;;;;;;;18.30;9.27;;;1.80;99.90;;;;;;5091599;28;20048;-89
2022/12/12 02:08:34;;;;;;;19.98;9.07;;;1.90;99.90;;;;;;5077257;28;20555;-87
2022/12/12 02:11:00;;;;;;;17.77;7.40;;;1.80;99.90;;;;;;5094060;28;20032;-88
2022/12/12 02:13:29;;;;;;;16.35;8.15;;;1.80;99.90;;;;;;5093671;28;20093;-87
2022/12/12 02:16:07;;;;;;;20.13;9.25;;;1.80;99.90;;;;;;5077257;28;20747;-88
2022/12/12 02:18:42;;;;;;;20.02;9.55;;;1.80;99.90;;;;;;5093931;28;20086;-88
2022/12/12 02:21:21;;;;;;;17.20;8.70;;;1.80;99.90;;;;;;5093797;28;20039;-87
2022/12/12 02:24:22;;;;;;;15.85;7.40;;;1.80;99.90;;;;;;5093800;28;20127;-88
2022/12/12 02:27:02;;;;;;;19.05;8.52;;;1.80;99.90;;;;;;5076781;28;20044;-87
2022/12/12 02:30:02;;;;;;;18.58;9.48;;;1.90;99.90;;;;;;5077052;28;20040;-87
2022/12/12 02:32:48;;;;;;;16.92;8.27;;;1.80;99.90;;;;;;5093395;28;20042;-88
2022/12/12 02:35:46;;;;;;;14.80;7.18;;;1.90;99.90;;;;;;5093679;28;20046;-88
2022/12/12 02:38:24;;;;;;;16.35;7.47;;;1.90;99.90;;;;;;5076787;28;20417;-88
2022/12/12 02:41:08;;;;;;;16.25;7.88;;;1.90;99.90;;;;;;5076755;28;20067;-88
2022/12/12 02:43:57;;;;;;;18.13;9.15;;;1.90;99.90;;;;;;5076301;28;20533;-88
2022/12/12 02:46:43;;;;;;;19.85;8.38;;;1.90;99.90;;;;;;5076569;28;20040;-88
2022/12/12 02:49:16;;;;;;;19.45;9.45;;;1.90;99.90;;;;;;5093269;28;20040;-88
2022/12/12 02:51:44;;;;;;;15.70;7.78;;;1.80;99.90;;;;;;5093411;28;20067;-87
2022/12/12 02:54:19;;;;;;;18.85;8.80;;;1.80;99.90;;;;;;5093191;28;20047;-87
2022/12/12 02:56:51;;;;;;;18.73;9.30;;;1.80;99.90;;;;;;5076379;28;20070;-87
2022/12/12 02:59:23;;;;;;;18.83;8.85;;;1.80;99.90;;;;;;5093412;28;20078;-87
2022/12/12 03:01:59;;;;;;;17.15;8.02;;;1.80;99.90;;;;;;5076071;28;20036;-88
2022/12/12 03:07:46;;;;;;;19.40;9.32;;;1.80;99.90;;;;;;5092774;28;20040;-88
2022/12/12 03:10:27;;;;;;;19.38;8.40;;;1.80;99.90;;;;;;5076581;28;20134;-87
2022/12/12 03:13:00;;;;;;;22.02;9.45;;;1.80;99.90;;;;;;5092771;28;20082;-88
2022/12/12 03:15:53;;;;;;;18.83;8.73;;;1.80;99.90;;;;;;5076167;28;20067;-88
2022/12/12 03:18:31;;;;;;;18.40;7.38;;;1.80;99.90;;;;;;5074773;28;20116;-88
2022/12/12 03:21:03;;;;;;;18.05;8.32;;;1.80;99.90;;;;;;5092952;28;20129;-87
2022/12/12 03:23:43;;;;;;;19.05;8.23;;;1.80;99.90;;;;;;5092363;28;20051;-88
2022/12/12 03:26:13;;;;;;;19.77;9.27;;;1.80;99.90;;;;;;5092623;28;20074;-88
2022/12/12 03:28:53;;;;;;;18.92;8.50;;;1.80;99.90;;;;;;5075626;28;20067;-88
2022/12/12 03:31:24;;;;;;;21.08;9.85;;;1.80;99.90;;;;;;5093038;28;20075;-88
2022/12/12 03:33:55;;;;;;;18.27;8.20;;;1.80;99.90;;;;;;5092297;28;20032;-88
2022/12/12 03:36:28;;;;;;;16.38;7.38;;;1.70;99.90;;;;;;5075940;28;20043;-87
2022/12/12 03:38:58;;;;;;;17.25;7.90;;;1.80;99.90;;;;;;5075418;28;20051;-88
2022/12/12 03:41:49;;;;;;;20.88;9.30;;;1.80;99.90;;;;;;5075562;28;20044;-88
2022/12/12 03:44:23;;;;;;;19.50;9.65;;;1.80;99.90;;;;;;5092409;28;20079;-88
2022/12/12 03:46:55;;;;;;;17.13;7.78;;;1.80;99.90;;;;;;5075408;28;20048;-88
2022/12/12 03:49:28;;;;;;;19.38;8.35;;;1.80;99.90;;;;;;5075396;28;20082;-88
2022/12/12 03:52:12;;;;;;;16.48;7.97;;;1.80;99.90;;;;;;5075429;28;20032;-88
2022/12/12 03:54:52;;;;;;;17.17;8.70;;;1.80;99.90;;;;;;5092071;28;20501;-88
2022/12/12 03:57:23;;;;;;;17.48;7.70;;;1.80;99.90;;;;;;5075113;28;20032;-88
2022/12/12 04:00:06;;;;;;;17.40;8.18;;;1.80;99.90;;;;;;5092686;28;20048;-88
2022/12/12 04:02:45;;;;;;;17.27;8.57;;;1.80;99.90;;;;;;5091828;28;20047;-88
2022/12/12 04:05:19;;;;;;;17.50;8.95;;;1.80;99.90;;;;;;5091895;28;20051;-88
2022/12/12 04:08:03;;;;;;;18.33;8.85;;;1.80;99.90;;;;;;5074721;28;20044;-88
2022/12/12 04:13:34;;;;;;;17.88;8.90;;;1.80;99.90;;;;;;5091434;28;20036;-88
2022/12/12 04:16:12;;;;;;;18.02;8.82;;;1.80;99.90;;;;;;5074924;28;20043;-89
2022/12/12 04:18:47;;;;;;;16.83;8.70;;;1.80;99.90;;;;;;5075013;28;20046;-88
2022/12/12 04:24:51;;;;;;;18.67;9.15;;;1.90;99.90;;;;;;5091140;28;20044;-88
2022/12/12 04:27:49;;;;;;;17.85;8.70;;;1.90;99.90;;;;;;5070308;28;20091;-88
2022/12/12 04:30:15;;;;;;;16.95;8.68;;;1.80;99.90;;;;;;5073460;28;20050;-88
2022/12/12 04:33:09;;;;;;;19.13;8.82;;;1.80;99.90;;;;;;5091057;28;20036;-88
2022/12/12 04:35:40;;;;;;;15.23;7.82;;;1.80;99.90;;;;;;5070593;28;20048;-88
2022/12/12 04:38:14;;;;;;;20.85;9.18;;;1.90;99.90;;;;;;5074555;28;20081;-87
2022/12/12 04:40:42;;;;;;;18.67;9.65;;;1.90;99.90;;;;;;5074432;28;20032;-87
2022/12/12 04:43:28;;;;;;;14.88;8.68;;;1.90;99.90;;;;;;5074232;28;20079;-87
2022/12/12 04:45:57;;;;;;;18.67;8.82;;;1.90;99.90;;;;;;5091107;28;20040;-87
2022/12/12 04:48:32;;;;;;;20.33;9.00;;;1.90;99.90;;;;;;5091077;28;20041;-88
2022/12/12 04:50:59;;;;;;;16.35;7.80;;;1.90;99.90;;;;;;5074276;28;20031;-87
2022/12/12 04:53:31;;;;;;;18.40;9.48;;;1.90;99.90;;;;;;5073875;28;20043;-88
2022/12/12 04:55:59;;;;;;;16.02;8.00;;;1.90;99.90;;;;;;5091230;28;20032;-88
2022/12/12 04:58:26;;;;;;;19.20;8.68;;;1.90;99.90;;;;;;5090894;28;20040;-87
2022/12/12 05:00:58;;;;;;;19.30;8.57;;;1.90;99.90;;;;;;5074115;28;20405;-88
2022/12/12 05:03:46;;;;;;;15.50;7.88;;;1.90;99.90;;;;;;5073700;28;20088;-87
2022/12/12 05:06:16;;;;;;;18.30;8.32;;;1.90;99.90;;;;;;5090765;28;20094;-88
2022/12/12 05:08:45;;;;;;;18.10;8.27;;;1.90;99.90;;;;;;5074082;28;20040;-87
2022/12/12 05:11:11;;;;;;;18.20;8.52;;;1.90;99.90;;;;;;5091038;28;20508;-87
2022/12/12 05:13:39;;;;;;;17.75;8.65;;;1.90;99.90;;;;;;5090564;28;20048;-88
2022/12/12 05:16:31;;;;;;;19.27;8.25;;;1.90;99.90;;;;;;5074185;28;20062;-88
2022/12/12 05:18:57;;;;;;;22.50;8.40;;;1.90;99.90;;;;;;5064735;28;20040;-87
2022/12/12 05:21:23;;;;;;;19.17;7.93;;;1.90;99.90;;;;;;5074027;28;20036;-88
2022/12/12 05:23:48;;;;;;;17.15;8.15;;;1.90;99.90;;;;;;5090295;28;20408;-87
2022/12/12 05:26:22;;;;;;;17.58;8.25;;;1.90;99.90;;;;;;5090521;28;20048;-87
2022/12/12 05:28:48;;;;;;;18.83;9.38;;;1.90;99.90;;;;;;5090560;28;20032;-87
2022/12/12 05:31:14;;;;;;;16.25;7.60;;;1.90;99.90;;;;;;5090387;28;20036;-88
2022/12/12 05:33:39;;;;;;;15.95;8.13;;;1.90;99.90;;;;;;5073391;28;20081;-88
2022/12/12 05:36:05;;;;;;;16.48;8.50;;;1.90;99.90;;;;;;5073636;28;20040;-88
2022/12/12 05:38:31;;;;;;;19.20;8.85;;;1.90;99.90;;;;;;5073693;28;20051;-88
2022/12/12 05:40:57;;;;;;;18.65;8.98;;;1.90;99.90;;;;;;5075048;28;20563;-88
2022/12/12 05:43:22;;;;;;;18.00;8.82;;;1.90;99.90;;;;;;5094409;28;20036;-88
2022/12/12 05:45:48;;;;;;;17.10;8.73;;;1.90;99.90;;;;;;5094476;28;20040;-88
2022/12/12 05:48:13;;;;;;;20.42;9.13;;;1.90;99.90;;;;;;5077825;28;20044;-87
2022/12/12 05:50:39;;;;;;;17.00;8.20;;;1.90;99.90;;;;;;5077633;28;20032;-87
2022/12/12 05:53:04;;;;;;;17.88;7.82;;;1.90;99.90;;;;;;5077172;28;20052;-88
2022/12/12 05:55:30;;;;;;;17.00;8.43;;;1.90;99.90;;;;;;5094425;28;20039;-88
2022/12/12 05:57:56;;;;;;;17.58;9.45;;;1.90;99.90;;;;;;5077331;28;20105;-88
2022/12/12 06:00:21;;;;;;;18.05;8.98;;;1.90;99.90;;;;;;5094448;28;20047;-87
2022/12/12 06:02:48;;;;;;;17.70;8.52;;;1.90;99.90;;;;;;5077197;28;20035;-87
2022/12/12 06:05:14;;;;;;;17.70;8.70;;;1.90;99.90;;;;;;5077491;28;20422;-87
2022/12/12 06:07:39;;;;;;;16.23;8.27;;;1.90;99.90;;;;;;5094158;28;20036;-87
2022/12/12 06:10:05;;;;;;;17.85;8.30;;;1.90;99.90;;;;;;5091169;28;20098;-87
2022/12/12 06:12:31;;;;;;;19.13;11.10;;;1.90;99.90;;;;;;5075784;28;20668;-87
2022/12/12 06:14:57;;;;;;;19.02;11.15;;;1.90;99.90;;;;;;5076101;28;20047;-87
2022/12/12 06:17:22;;;;;;;19.50;11.30;;;1.90;99.90;;;;;;5075991;28;20039;-87
2022/12/12 06:19:48;;;;;;;19.50;10.02;;;1.90;99.90;;;;;;5075930;28;20511;-87
2022/12/12 06:22:13;;;;;;;19.40;8.65;;;1.90;99.90;;;;;;5075626;28;20044;-87
2022/12/12 06:24:39;;;;;;;17.88;9.10;;;1.90;99.90;;;;;;5075740;28;20131;-87
2022/12/12 06:27:05;;;;;;;21.08;9.98;;;1.90;99.90;;;;;;5075721;28;20083;-88
2022/12/12 06:29:30;;;;;;;17.55;8.13;;;1.90;99.90;;;;;;5075766;28;20493;-87
2022/12/12 06:31:56;;;;;;;17.60;8.85;;;1.90;99.90;;;;;;5075880;28;20110;-87
2022/12/12 06:34:21;;;;;;;19.40;9.02;;;1.90;99.90;;;;;;5092470;28;20455;-88
2022/12/12 06:36:47;;;;;;;17.08;8.20;;;1.90;99.90;;;;;;5075744;28;20044;-88
2022/12/12 06:39:12;;;;;;;19.77;9.65;;;1.90;99.90;;;;;;5075156;28;20043;-88
2022/12/12 06:41:38;;;;;;;17.77;8.50;;;1.90;99.90;;;;;;5092665;28;20409;-88
2022/12/12 06:44:05;;;;;;;19.73;9.32;;;1.90;99.90;;;;;;5075445;28;20040;-88
2022/12/12 06:46:30;;;;;;;19.42;8.90;;;1.90;99.90;;;;;;5093035;28;20048;-88
2022/12/12 06:48:56;;;;;;;18.63;8.52;;;1.90;99.90;;;;;;5092774;28;20028;-88
2022/12/12 06:51:30;;;;;;;17.17;8.68;;;1.90;99.90;;;;;;5075772;28;20039;-88
2022/12/12 06:53:56;;;;;;;19.27;9.40;;;1.90;99.90;;;;;;5092416;28;20043;-87
2022/12/12 06:56:24;;;;;;;19.27;8.73;;;1.90;99.90;;;;;;5092781;28;20044;-88
2022/12/12 06:58:50;;;;;;;17.52;9.07;;;1.90;99.90;;;;;;5075105;28;20501;-88
2022/12/12 07:01:18;;;;;;;16.85;8.90;;;1.90;99.90;;;;;;5104708;28;20046;-88
2022/12/12 07:03:44;;;;;;;19.05;9.45;;;1.90;99.90;;;;;;5088952;28;20040;-87
2022/12/12 07:06:10;;;;;;;20.48;9.50;;;1.90;99.90;;;;;;5092307;28;20040;-88
2022/12/12 07:08:36;;;;;;;17.90;9.57;;;1.90;99.90;;;;;;5092876;28;20454;-87
2022/12/12 07:11:12;;;;;;;19.30;8.13;;;1.90;99.90;;;;;;5092347;28;20036;-87
2022/12/12 07:13:38;;;;;;;17.77;8.50;;;1.90;99.90;;;;;;5075318;28;20048;-87
2022/12/12 07:16:04;;;;;;;18.45;9.10;;;1.90;99.90;;;;;;5109618;28;20055;-87
2022/12/12 07:18:30;;;;;;;20.65;10.05;;;1.90;99.90;;;;;;5092066;28;20043;-87
2022/12/12 07:20:56;;;;;;;22.75;10.63;;;1.90;99.90;;;;;;5126467;27;20036;-87
2022/12/12 07:23:21;;;;;;;18.70;10.07;;;1.90;99.90;;;;;;5108209;28;20547;-87
2022/12/12 07:25:47;;;;;;;19.85;10.75;;;1.90;99.90;;;;;;5075115;28;20110;-87
2022/12/12 07:28:14;;;;;;;20.05;10.13;;;1.90;99.90;;;;;;5126155;27;20040;-87
2022/12/12 07:30:45;;;;;;;20.73;10.80;;;1.80;99.90;;;;;;5109303;28;20439;-87
2022/12/12 07:33:13;;;;;;;22.00;9.75;;;1.80;99.90;;;;;;5091953;28;20077;-87
2022/12/12 07:35:39;;;;;;;18.70;9.27;;;1.70;99.90;;;;;;5108840;28;20040;-88
2022/12/12 07:38:05;;;;;;;17.73;8.43;;;1.70;99.90;;;;;;5091805;28;20432;-87
2022/12/12 07:40:31;;;;;;;21.50;10.40;;;1.70;99.90;;;;;;5091214;28;20078;-87
2022/12/12 07:42:58;;;;;;;21.65;11.00;;;1.60;99.90;;;;;;5074544;28;20043;-88
2022/12/12 07:45:24;;;;;;;20.48;10.15;;;1.60;99.90;;;;;;5091911;28;20497;-88
2022/12/12 07:47:51;;;;;;;21.92;10.85;;;1.60;99.90;;;;;;5074912;28;20093;-88
2022/12/12 07:50:17;;;;;;;24.17;11.90;;;1.50;99.90;;;;;;5108835;28;20086;-88
2022/12/12 07:52:42;;;;;;;24.20;12.80;;;1.50;99.90;;;;;;5074440;28;20038;-88
2022/12/12 07:55:09;;;;;;;24.95;12.88;;;1.50;99.90;;;;;;5074630;28;20126;-88
2022/12/12 07:57:36;;;;;;;23.27;11.60;;;1.50;99.90;;;;;;5091568;28;20052;-88
2022/12/12 08:00:04;;;;;;;24.92;10.68;;;1.50;99.90;;;;;;5091462;28;20124;-89
2022/12/12 08:02:29;;;;;;;26.60;11.85;;;1.40;99.90;;;;;;5091177;28;20035;-88
2022/12/12 08:04:55;;;;;;;23.40;11.60;;;1.40;99.90;;;;;;5107919;28;20181;-88
2022/12/12 08:07:20;;;;;;;25.05;11.77;;;1.40;99.90;;;;;;5108135;28;20047;-87
2022/12/12 08:09:46;;;;;;;24.98;11.68;;;1.40;99.90;;;;;;5108569;28;20040;-88
2022/12/12 08:12:12;;;;;;;26.02;13.15;;;1.30;99.90;;;;;;5125350;27;20511;-87
2022/12/12 08:14:37;;;;;;;23.38;11.88;;;1.30;99.90;;;;;;5125575;27;20044;-87
2022/12/12 08:17:03;;;;;;;25.90;11.77;;;1.30;99.90;;;;;;5074732;28;20036;-87
2022/12/12 08:19:28;;;;;;;22.38;10.80;;;1.20;99.90;;;;;;5107804;28;20505;-88
2022/12/12 08:21:54;;;;;;;22.88;10.80;;;1.30;99.90;;;;;;5091211;28;20036;-87
2022/12/12 08:24:20;;;;;;;23.25;11.57;;;1.30;99.90;;;;;;5107688;28;20044;-88
2022/12/12 08:26:49;;;;;;;22.15;10.80;;;1.20;99.90;;;;;;5108172;28;20036;-88
2022/12/12 08:29:14;;;;;;;21.92;9.45;;;1.20;99.90;;;;;;5090941;28;20040;-88
2022/12/12 08:31:41;;;;;;;21.17;10.27;;;1.20;99.90;;;;;;5073956;28;20044;-87
2022/12/12 08:34:07;;;;;;;23.80;11.20;;;1.20;99.90;;;;;;5107817;28;20082;-87
2022/12/12 08:36:34;;;;;;;26.02;11.13;;;1.20;99.90;;;;;;5073974;28;20075;-87
2022/12/12 08:39:09;;;;;;;26.17;12.40;;;1.20;99.90;;;;;;5073966;28;20514;-87
2022/12/12 08:41:38;;;;;;;23.90;10.90;;;1.20;99.90;;;;;;5090980;28;20089;-90
2022/12/12 08:44:04;;;;;;;23.98;11.20;;;1.20;99.90;;;;;;5107646;28;20062;-87
2022/12/12 08:46:30;;;;;;;26.45;14.82;;;1.20;99.90;;;;;;5107801;28;20040;-87
2022/12/12 08:48:55;;;;;;;23.65;11.32;;;1.20;99.90;;;;;;5073807;28;20390;-87
2022/12/12 08:51:21;;;;;;;27.50;12.35;;;1.20;99.90;;;;;;5124587;27;20043;-87
2022/12/12 08:53:49;;;;;;;25.15;13.20;;;1.30;99.90;;;;;;5107261;28;20554;-87
2022/12/12 08:56:16;;;;;;;24.67;13.20;;;1.30;99.90;;;;;;5090886;28;20411;-87
2022/12/12 08:58:42;;;;;;;29.48;13.70;;;1.30;99.90;;;;;;5090285;28;20509;-87
2022/12/12 09:01:16;;;;;;;27.42;13.43;;;1.30;99.90;;;;;;5073712;28;20040;-87
2022/12/12 09:03:42;;;;;;;23.58;12.65;;;1.30;99.90;;;;;;5107229;28;20051;-87
2022/12/12 09:06:09;;;;;;;24.48;12.80;;;1.30;99.90;;;;;;5073484;28;20044;-87
2022/12/12 09:08:35;;;;;;;26.35;11.93;;;1.40;99.90;;;;;;5073257;28;20566;-88
2022/12/12 09:11:01;;;;;;;27.40;13.32;;;1.40;99.90;;;;;;5073518;28;20036;-88
2022/12/12 09:13:26;;;;;;;28.35;15.45;;;1.40;99.90;;;;;;5123988;27;20412;-87
2022/12/12 09:15:52;;;;;;;27.13;13.43;;;1.40;99.90;;;;;;5072288;28;20040;-87
2022/12/12 09:18:19;;;;;;;30.55;13.10;;;1.40;99.90;;;;;;5106738;28;20409;-88
2022/12/12 09:20:53;;;;;;;31.40;15.38;;;1.40;99.90;;;;;;5090455;28;20485;-88
2022/12/12 09:23:19;;;;;;;32.10;14.85;;;1.50;99.90;;;;;;5089840;28;20051;-88
2022/12/12 09:25:45;;;;;;;30.83;14.50;;;1.50;99.90;;;;;;5090348;28;20090;-87
2022/12/12 09:28:12;;;;;;;31.25;14.05;;;1.50;99.90;;;;;;5073163;28;20040;-87
2022/12/12 09:30:38;;;;;;;30.08;14.90;;;1.50;99.90;;;;;;5073403;28;20067;-87
2022/12/12 09:33:04;;;;;;;30.40;14.75;;;1.50;99.90;;;;;;5072763;28;20040;-87
2022/12/12 09:35:30;;;;;;;31.23;14.50;;;1.60;99.90;;;;;;5073153;28;20036;-87
2022/12/12 09:37:56;;;;;;;28.45;13.90;;;1.60;99.90;;;;;;5073155;28;20401;-88
2022/12/12 09:41:00;;;;;;;32.85;16.02;;;1.60;99.90;;;;;;5106842;28;20409;-88
2022/12/12 09:43:30;;;;;;;25.48;14.25;;;1.70;99.90;;;;;;5106703;28;20574;-87
2022/12/12 09:45:55;;;;;;;35.53;15.43;;;1.70;99.90;;;;;;5073319;28;20113;-87
2022/12/12 09:48:41;;;;;;;29.85;15.68;;;1.70;99.90;;;;;;5073071;28;20509;-88
2022/12/12 09:51:07;;;;;;;35.58;16.70;;;1.70;99.90;;;;;;5090212;28;20036;-87
2022/12/12 09:53:33;;;;;;;37.05;16.65;;;1.80;99.90;;;;;;5072503;28;20043;-87
2022/12/12 09:56:20;;;;;;;34.10;15.60;;;1.80;99.90;;;;;;5123894;28;20036;-87
2022/12/12 09:59:07;;;;;;;32.17;15.77;;;1.90;99.90;;;;;;5106891;28;20044;-87
2022/12/12 10:01:41;;;;;;;40.30;20.25;;;1.90;99.90;;;;;;5106295;28;20405;-88
2022/12/12 10:04:31;;;;;;;37.00;17.80;;;1.90;99.90;;;;;;5122447;28;20126;-87
2022/12/12 10:07:17;;;;;;;29.60;14.65;;;1.90;99.90;;;;;;5104639;28;20111;-88
2022/12/12 10:09:58;;;;;;;35.63;16.88;;;2.00;99.90;;;;;;5070944;28;20672;-88
2022/12/12 10:12:25;;;;;;;36.45;16.35;;;2.00;99.90;;;;;;5103586;28;20047;-87
2022/12/12 10:14:58;;;;;;;33.83;16.27;;;2.00;99.90;;;;;;5106742;28;20106;-87
2022/12/12 10:17:34;;;;;;;33.58;15.82;;;2.10;99.90;;;;;;5088065;28;20044;-88
2022/12/12 10:20:24;;;;;;;33.28;15.63;;;2.10;99.90;;;;;;5073080;28;20040;-88
2022/12/12 10:23:15;;;;;;;36.08;17.38;;;2.20;99.90;;;;;;5106093;28;20517;-87
2022/12/12 10:26:05;;;;;;;41.78;18.55;;;2.20;99.90;;;;;;5106602;28;20046;-88
2022/12/12 10:28:32;;;;;;;34.67;16.63;;;2.20;99.90;;;;;;5110570;28;20047;-88
2022/12/12 10:31:21;;;;;;;34.83;17.25;;;2.30;99.90;;;;;;5093254;28;20040;-88
2022/12/12 10:33:55;;;;;;;33.78;17.05;;;2.30;99.90;;;;;;5078038;28;20048;-88
2022/12/12 10:36:57;;;;;;;33.80;16.80;;;2.30;99.90;;;;;;5090595;28;20040;-88
2022/12/12 10:39:44;;;;;;;34.28;16.45;;;2.40;99.90;;;;;;5075827;28;20075;-87
2022/12/12 10:42:34;;;;;;;31.85;15.88;;;2.40;99.90;;;;;;5092978;28;20405;-88
2022/12/12 10:45:21;;;;;;;35.25;16.27;;;2.40;99.90;;;;;;5076242;28;20044;-88
2022/12/12 10:47:47;;;;;;;33.40;15.40;;;2.50;99.90;;;;;;5109941;28;20036;-88
2022/12/12 10:50:22;;;;;;;31.25;16.85;;;2.50;99.90;;;;;;5110142;28;20047;-88
2022/12/12 10:52:47;;;;;;;30.35;16.17;;;2.50;99.90;;;;;;5092529;28;20028;-88
2022/12/12 10:55:24;;;;;;;31.95;15.18;;;2.60;99.90;;;;;;5076132;28;20512;-88
2022/12/12 10:58:02;;;;;;;29.90;15.68;;;2.60;99.90;;;;;;5075677;28;20497;-88
2022/12/12 11:00:34;;;;;;;33.15;16.90;;;2.60;99.90;;;;;;5108928;28;20040;-87
2022/12/12 11:03:27;;;;;;;29.92;15.80;;;2.60;99.90;;;;;;5075500;28;20055;-87
2022/12/12 11:05:57;;;;;;;31.73;16.48;;;2.70;99.90;;;;;;5092711;28;20093;-87
2022/12/12 11:08:29;;;;;;;34.10;16.83;;;2.70;99.90;;;;;;5109594;28;20036;-88
2022/12/12 11:11:18;;;;;;;26.60;13.95;;;2.80;99.90;;;;;;5109576;28;20042;-87
2022/12/12 11:14:19;;;;;;;33.00;15.63;;;2.80;99.90;;;;;;5092027;28;20039;-87
2022/12/12 11:16:45;;;;;;;29.77;14.50;;;2.80;99.90;;;;;;5075499;28;20040;-88
2022/12/12 11:19:22;;;;;;;25.98;13.73;;;2.80;99.90;;;;;;5074831;28;20063;-88
2022/12/12 11:21:48;;;;;;;30.70;14.50;;;2.90;99.90;;;;;;5075324;28;20040;-88
2022/12/12 11:24:17;;;;;;;30.15;13.93;;;2.90;99.90;;;;;;5091954;28;20054;-88
2022/12/12 11:26:58;;;;;;;30.83;14.57;;;3.00;99.90;;;;;;5092368;28;20040;-89
2022/12/12 11:29:42;;;;;;;29.58;14.20;;;3.00;99.90;;;;;;5092344;28;20558;-88
2022/12/12 11:32:31;;;;;;;27.17;13.02;;;3.00;99.90;;;;;;5108902;28;20145;-88
2022/12/12 11:35:02;;;;;;;29.73;13.93;;;3.00;99.90;;;;;;5075217;28;20076;-87
2022/12/12 11:37:37;;;;;;;28.55;14.20;;;3.00;99.90;;;;;;5109023;28;20441;-88
2022/12/12 11:40:04;;;;;;;29.25;14.93;;;3.00;99.90;;;;;;5107589;28;20055;-88
2022/12/12 11:42:32;;;;;;;29.63;13.75;;;3.10;99.90;;;;;;5108470;28;20088;-88
2022/12/12 11:45:21;;;;;;;29.95;12.77;;;3.10;99.90;;;;;;5108723;28;20054;-88
2022/12/12 11:47:47;;;;;;;32.63;15.43;;;3.20;99.90;;;;;;5108783;28;20036;-87
2022/12/12 11:50:17;;;;;;;27.05;13.73;;;3.20;99.90;;;;;;5074797;28;20088;-88
2022/12/12 11:52:43;;;;;;;26.05;13.05;;;3.20;99.90;;;;;;5108208;28;20036;-88
2022/12/12 11:55:15;;;;;;;29.98;14.52;;;3.20;99.90;;;;;;5075025;28;20032;-88
2022/12/12 11:58:13;;;;;;;30.00;13.43;;;3.20;99.90;;;;;;5108406;28;20044;-88
2022/12/12 12:01:02;;;;;;;27.17;13.48;;;3.10;99.90;;;;;;5108861;28;20125;-88
2022/12/12 12:03:30;;;;;;;29.05;14.05;;;3.10;99.90;;;;;;5091247;28;20043;-88
2022/12/12 12:06:20;;;;;;;28.40;15.02;;;3.10;99.90;;;;;;5074914;28;20090;-89
2022/12/12 12:08:58;;;;;;;29.52;14.35;;;3.20;99.90;;;;;;5108319;28;20048;-88
2022/12/12 12:11:48;;;;;;;27.33;13.80;;;3.20;99.90;;;;;;5091349;28;20075;-88
2022/12/12 12:14:19;;;;;;;31.83;14.07;;;3.10;99.90;;;;;;5074642;28;20072;-89
2022/12/12 12:17:10;;;;;;;30.85;14.13;;;3.20;99.90;;;;;;5091387;28;20049;-88
2022/12/12 12:19:45;;;;;;;32.83;15.13;;;3.20;99.90;;;;;;5090996;28;20520;-88
2022/12/12 12:22:51;;;;;;;31.20;14.52;;;3.20;99.90;;;;;;5073014;28;20547;-88
2022/12/12 12:25:42;;;;;;;37.03;16.13;;;3.10;99.90;;;;;;5088553;28;20036;-88
2022/12/12 12:28:26;;;;;;;35.38;16.05;;;3.20;99.90;;;;;;5074000;28;20036;-88
2022/12/12 12:31:33;;;;;;;34.78;16.13;;;3.20;99.90;;;;;;5090201;28;20040;-88
2022/12/12 12:34:37;;;;;;;32.90;16.30;;;3.20;99.90;;;;;;5074349;28;20051;-88
2022/12/12 12:37:12;;;;;;;31.15;14.65;;;3.40;99.90;;;;;;5013189;28;20748;-88
2022/12/12 12:39:58;;;;;;;30.67;15.35;;;3.50;99.90;;;;;;4996975;28;20140;-88
2022/12/12 12:42:35;;;;;;;29.27;14.48;;;3.60;99.90;;;;;;4996858;28;20073;-88
2022/12/12 12:45:27;;;;;;;32.78;15.20;;;3.60;99.90;;;;;;4997390;28;20045;-88
2022/12/12 12:48:00;;;;;;;28.45;14.70;;;3.60;99.90;;;;;;4996800;28;20072;-88
2022/12/12 12:50:36;;;;;;;31.95;14.93;;;3.60;99.90;;;;;;5013058;28;20077;-88
2022/12/12 12:53:13;;;;;;;31.42;15.02;;;3.60;99.90;;;;;;5012207;28;20037;-89
2022/12/12 12:55:48;;;;;;;28.48;15.57;;;3.70;99.90;;;;;;5028483;28;20418;-87
2022/12/12 12:58:24;;;;;;;34.38;18.13;;;3.70;99.90;;;;;;5046075;28;20498;-88
2022/12/12 13:01:01;;;;;;;29.15;14.63;;;3.70;99.90;;;;;;5012926;28;20080;-89
2022/12/12 13:03:34;;;;;;;29.55;14.57;;;3.70;99.90;;;;;;5029453;28;20053;-88
2022/12/12 13:06:03;;;;;;;31.77;16.98;;;3.60;99.90;;;;;;5029537;28;20514;-88
2022/12/12 13:08:56;;;;;;;27.90;14.07;;;3.70;99.90;;;;;;5045765;28;20211;-88
2022/12/12 13:11:43;;;;;;;31.88;14.63;;;3.70;99.90;;;;;;5012985;28;20131;-88
2022/12/12 13:14:20;;;;;;;33.25;15.25;;;3.70;99.90;;;;;;5094527;28;20047;-88
2022/12/12 13:16:48;;;;;;;30.80;15.85;;;3.80;99.90;;;;;;5073861;28;20044;-88
2022/12/12 13:19:23;;;;;;;29.33;15.00;;;4.00;99.90;;;;;;5073626;28;20123;-87